UPSVAC Airport Information Service

Anchorage Ted Stevens International Airport (500-599)

ICAO: PANC Country: United States
Latitude: 61.1744 Longitude: -149.996
Latest Arrival : UPS604 (KSDF-PANC) Latest Departure : UPS2365 (PANC-RJBB)


WX CaptureLIVE
Data provided by noaa.gov | Fetched at 17:41:59

METAR : PANC 281726Z 18003KT 10SM BKN022 OVC046 14/10 A3014 RMK AO2 T01440100

TAF : PANC 281501Z 2815/2918 16006KT P6SM BKN040 OVC050 TEMPO 2815/2819 SCT040 FM282000 16009KT P6SM SCT040


Runway Data for PANC
Data provided by openaviationdata.com

Runway ID Mag Var Hdg Length Elevation Surface ILS Freq ILS Id ILS Slope
07L 23 66° 10587 ft 152 ft Asphalt 109.9 ITGN 3
07R 23 66° 10886 ft 152 ft Asphalt 111.3 IANC 3
15 23 141° 11591 ft 152 ft Asphalt 111.75 IBSC 3
25L 23 246° 10886 ft 152 ft Asphalt -- -- --
25R 23 246° 10587 ft 152 ft Asphalt -- -- --
33 23 321° 11591 ft 152 ft Asphalt -- -- --

Anchorage Ted Stevens International Airport (500-599), United States
Use only for reference purposes



Not for navigational purposes.